Time;durP1;ratioP1;P1;durP2;ratioP2;P2;SDS_P1;SDS_P2;PMS_P1;PMS_P2;Temp;Humidity;BMP_temperature;BMP_pressure;BME280_temperature;BME280_humidity;BME280_pressure;Samples;Min_cycle;Max_cycle;Signal;HPM_P1;HPM_P2
2024/04/23 00:00:09;;;;;;;13.75;8.63;;;;;;;2.44;100.00;101913.41;5435931;26;20008;-71
2024/04/23 00:02:35;;;;;;;16.17;9.52;;;;;;;2.38;100.00;101916.28;5405744;26;20087;-71
2024/04/23 00:05:02;;;;;;;21.52;9.43;;;;;;;2.29;100.00;101914.97;5431313;26;20006;-71
2024/04/23 00:07:28;;;;;;;15.88;9.13;;;;;;;2.23;100.00;101919.59;5404166;26;20692;-71
2024/04/23 00:09:54;;;;;;;15.68;9.65;;;;;;;2.17;100.00;101907.06;5396298;26;20022;-71
2024/04/23 00:12:20;;;;;;;18.10;10.48;;;;;;;2.11;100.00;101909.03;5396661;26;20349;-71
2024/04/23 00:14:45;;;;;;;19.95;10.73;;;;;;;2.10;100.00;101909.94;5398814;26;20026;-71
2024/04/23 00:17:11;;;;;;;19.77;10.15;;;;;;;2.11;100.00;101903.06;5434719;26;20050;-71
2024/04/23 00:19:37;;;;;;;17.52;10.23;;;;;;;2.11;100.00;101898.81;5390003;26;20015;-71
2024/04/23 00:22:03;;;;;;;15.10;9.55;;;;;;;2.12;100.00;101897.88;5427963;26;20022;-71
2024/04/23 00:24:29;;;;;;;18.15;9.80;;;;;;;2.11;100.00;101901.38;5433770;26;20007;-71
2024/04/23 00:26:57;;;;;;;19.55;9.75;;;;;;;2.09;100.00;101894.63;5423053;26;20011;-71
2024/04/23 00:29:23;;;;;;;17.70;9.75;;;;;;;2.05;100.00;101890.56;5431097;26;20019;-71
2024/04/23 00:31:49;;;;;;;16.85;10.02;;;;;;;2.04;100.00;101891.50;5403298;26;20083;-71
2024/04/23 00:34:15;;;;;;;18.25;10.88;;;;;;;2.01;100.00;101892.44;5409836;26;21174;-71
2024/04/23 00:37:11;;;;;;;13.88;9.20;;;;;;;1.99;100.00;101888.31;5411119;26;20007;-71
2024/04/23 00:39:36;;;;;;;18.80;11.00;;;;;;;1.98;100.00;101884.09;5392485;26;20106;-71
2024/04/23 00:42:03;;;;;;;16.98;10.07;;;;;;;1.94;100.00;101879.16;5435633;26;22296;-71
2024/04/23 00:44:28;;;;;;;17.23;10.68;;;;;;;1.94;100.00;101883.41;5436768;26;20007;-71
2024/04/23 00:46:55;;;;;;;15.15;9.50;;;;;;;1.92;100.00;101878.41;5406012;26;20052;-71
2024/04/23 00:49:21;;;;;;;17.25;9.57;;;;;;;1.91;100.00;101875.91;5430879;26;20080;-71
2024/04/23 00:51:51;;;;;;;14.23;9.13;;;;;;;1.91;100.00;101876.72;5398951;26;20018;-71
2024/04/23 00:54:19;;;;;;;18.88;10.60;;;;;;;1.88;100.00;101873.47;5427203;26;20026;-70
2024/04/23 00:56:45;;;;;;;16.52;9.73;;;;;;;1.84;100.00;101871.97;5432373;26;20034;-71
2024/04/23 00:59:16;;;;;;;17.98;10.40;;;;;;;1.77;100.00;101875.72;5430945;26;20003;-71
2024/04/23 01:01:43;;;;;;;16.70;9.57;;;;;;;1.72;100.00;101874.22;5434458;26;20019;-73
2024/04/23 01:04:08;;;;;;;14.95;9.18;;;;;;;1.73;100.00;101885.25;5393989;26;20469;-71
2024/04/23 01:06:34;;;;;;;16.33;9.35;;;;;;;1.72;100.00;101886.19;5435813;26;20022;-71
2024/04/23 01:09:02;;;;;;;15.23;9.85;;;;;;;1.69;100.00;101886.31;5427087;26;20083;-71
2024/04/23 01:11:29;;;;;;;23.33;11.35;;;;;;;1.66;100.00;101877.06;5433782;26;20087;-71
2024/04/23 01:13:55;;;;;;;16.90;9.35;;;;;;;1.66;100.00;101878.81;5432313;26;20427;-71
2024/04/23 01:16:27;;;;;;;15.57;9.73;;;;;;;1.65;100.00;101877.94;5430486;26;20018;-71
2024/04/23 01:18:55;;;;;;;17.77;9.80;;;;;;;1.64;100.00;101872.91;5436484;26;20022;-71
2024/04/23 01:21:29;;;;;;;17.30;10.73;;;;;;;1.62;100.00;101870.44;5433128;26;20477;-71
2024/04/23 01:24:03;;;;;;;17.08;10.25;;;;;;;1.60;100.00;101867.13;5404929;26;22079;-71
2024/04/23 01:26:29;;;;;;;15.77;8.85;;;;;;;1.58;100.00;101865.53;5407550;26;20011;-70
2024/04/23 01:28:55;;;;;;;18.88;9.75;;;;;;;1.57;100.00;101861.34;5380203;26;20027;-71
2024/04/23 01:31:23;;;;;;;16.05;9.18;;;;;;;1.53;100.00;101864.03;5401171;26;20436;-74
2024/04/23 01:33:52;;;;;;;15.02;9.73;;;;;;;1.49;100.00;101861.69;5405630;26;20011;-71
2024/04/23 01:36:18;;;;;;;16.55;9.75;;;;;;;1.49;100.00;101864.25;5402799;26;21711;-71
2024/04/23 01:38:45;;;;;;;19.00;10.23;;;;;;;1.50;100.00;101864.16;5433113;26;20033;-71
2024/04/23 01:41:12;;;;;;;19.00;10.25;;;;;;;1.44;100.00;101866.19;5434181;26;20469;-71
2024/04/23 01:43:39;;;;;;;14.65;9.70;;;;;;;1.38;100.00;101863.91;5428693;26;20452;-71
2024/04/23 01:46:05;;;;;;;17.10;10.13;;;;;;;1.38;100.00;101858.81;5433466;26;20103;-71
2024/04/23 01:48:31;;;;;;;16.25;9.95;;;;;;;1.35;100.00;101857.19;5406074;26;20103;-71
2024/04/23 01:50:57;;;;;;;18.77;10.35;;;;;;;1.36;100.00;101852.00;5437057;26;20006;-71
2024/04/23 01:53:23;;;;;;;14.77;9.48;;;;;;;1.35;100.00;101855.47;5427651;26;20053;-70
2024/04/23 01:55:49;;;;;;;14.57;9.85;;;;;;;1.34;100.00;101846.16;5405106;26;20371;-72
2024/04/23 01:58:16;;;;;;;14.50;9.38;;;;;;;1.33;100.00;101847.03;5436175;26;20010;-71
2024/04/23 02:00:43;;;;;;;16.80;9.85;;;;;;;1.33;100.00;101844.47;5432583;26;20349;-71
2024/04/23 02:03:10;;;;;;;15.73;9.73;;;;;;;1.31;100.00;101851.38;5397490;26;20012;-71
2024/04/23 02:05:37;;;;;;;16.70;9.63;;;;;;;1.28;100.00;101846.44;5437588;26;20051;-71
2024/04/23 02:08:03;;;;;;;19.92;10.38;;;;;;;1.24;100.00;101852.56;5407144;26;20430;-69
2024/04/23 02:10:29;;;;;;;17.38;10.02;;;;;;;1.21;100.00;101857.84;5434306;26;20010;-71
2024/04/23 02:12:55;;;;;;;15.40;9.98;;;;;;;1.16;100.00;101854.66;5407719;26;20062;-71
2024/04/23 02:15:21;;;;;;;17.48;10.10;;;;;;;1.12;100.00;101845.47;5429006;26;20006;-71
2024/04/23 02:17:47;;;;;;;16.40;9.55;;;;;;;1.06;100.00;101851.69;5435133;26;20002;-71
2024/04/23 02:20:13;;;;;;;18.55;9.80;;;;;;;1.03;100.00;101849.25;5408538;26;20006;-71
2024/04/23 02:22:39;;;;;;;19.10;10.57;;;;;;;1.03;100.00;101845.88;5434439;26;20010;-70
2024/04/23 02:25:05;;;;;;;18.98;10.73;;;;;;;1.02;100.00;101846.75;5441631;26;20037;-70
2024/04/23 02:27:31;;;;;;;15.35;9.30;;;;;;;1.01;100.00;101852.78;5439231;26;20022;-71
2024/04/23 02:30:00;;;;;;;17.38;10.68;;;;;;;0.97;100.00;101840.13;5405034;26;20015;-71
2024/04/23 02:32:26;;;;;;;17.08;10.25;;;;;;;0.93;100.00;101843.72;5438750;26;20022;-71
2024/04/23 02:34:52;;;;;;;18.92;10.32;;;;;;;0.89;100.00;101836.28;5439057;26;20003;-71
2024/04/23 02:37:18;;;;;;;20.02;11.23;;;;;;;0.86;100.00;101833.84;5409044;26;20006;-71
2024/04/23 02:39:44;;;;;;;20.08;11.02;;;;;;;0.86;100.00;101828.75;5410894;26;20010;-71
2024/04/23 02:42:10;;;;;;;18.48;10.88;;;;;;;0.85;100.00;101833.03;5402695;26;20017;-70
2024/04/23 02:44:36;;;;;;;17.67;10.73;;;;;;;0.82;100.00;101828.06;5438385;26;20010;-71
2024/04/23 02:47:02;;;;;;;18.77;10.68;;;;;;;0.78;100.00;101823.97;5408268;26;20000;-71
2024/04/23 02:49:28;;;;;;;19.05;11.77;;;;;;;0.76;100.00;101828.34;5438031;26;20011;-70
2024/04/23 02:51:55;;;;;;;18.55;10.18;;;;;;;0.75;100.00;101826.66;5406025;26;20003;-71
2024/04/23 02:54:22;;;;;;;18.90;11.40;;;;;;;0.72;100.00;101827.63;5435782;26;19999;-71
2024/04/23 02:56:50;;;;;;;20.02;11.27;;;;;;;0.71;100.00;101823.41;5408056;26;20522;-71
2024/04/23 02:59:21;;;;;;;19.33;11.68;;;;;;;0.71;100.00;101822.59;5443735;26;20039;-71
2024/04/23 03:01:47;;;;;;;18.55;11.50;;;;;;;0.69;100.00;101819.28;5402344;26;20417;-71
2024/04/23 03:04:13;;;;;;;18.15;11.18;;;;;;;0.67;100.00;101821.91;5435604;26;20027;-71
2024/04/23 03:06:39;;;;;;;20.17;11.32;;;;;;;0.65;100.00;101817.75;5439084;26;20015;-71
2024/04/23 03:09:05;;;;;;;22.60;11.30;;;;;;;0.63;100.00;101824.66;5408090;26;20022;-71
2024/04/23 03:11:31;;;;;;;22.02;11.52;;;;;;;0.61;100.00;101816.25;5434580;26;20010;-71
2024/04/23 03:13:57;;;;;;;21.77;11.60;;;;;;;0.60;100.00;101817.13;5434624;26;20019;-70
2024/04/23 03:16:23;;;;;;;18.52;11.02;;;;;;;0.58;100.00;101814.63;5433596;26;20007;-71
2024/04/23 03:18:49;;;;;;;20.75;12.30;;;;;;;0.55;100.00;101810.50;5406890;26;20549;-71
2024/04/23 03:21:15;;;;;;;19.65;11.50;;;;;;;0.53;100.00;101809.75;5433546;26;20014;-71
2024/04/23 03:23:41;;;;;;;19.98;11.63;;;;;;;0.50;100.00;101814.97;5404806;26;20019;-70
2024/04/23 03:26:07;;;;;;;19.63;11.35;;;;;;;0.47;100.00;101814.25;5406572;26;20339;-72
2024/04/23 03:28:33;;;;;;;19.27;11.40;;;;;;;0.45;100.00;101816.06;5440370;26;20049;-70
2024/04/23 03:30:58;;;;;;;22.30;12.60;;;;;;;0.43;100.00;101818.66;5405129;26;20046;-71
2024/04/23 03:33:25;;;;;;;20.27;11.95;;;;;;;0.41;100.00;101812.81;5432255;26;20018;-71
2024/04/23 03:35:51;;;;;;;23.55;12.82;;;;;;;0.38;100.00;101815.50;5411035;26;20372;-71
2024/04/23 03:38:17;;;;;;;22.17;12.15;;;;;;;0.35;100.00;101815.63;5435200;26;20011;-70
2024/04/23 03:40:43;;;;;;;17.77;11.40;;;;;;;0.34;100.00;101811.41;5411467;26;20449;-70
2024/04/23 03:43:09;;;;;;;23.20;12.73;;;;;;;0.33;100.00;101813.13;5405778;26;20240;-71
2024/04/23 03:45:35;;;;;;;22.45;13.10;;;;;;;0.33;100.00;101819.97;5438353;26;20015;-72
2024/04/23 03:48:01;;;;;;;20.50;12.75;;;;;;;0.31;100.00;101822.56;5413393;26;20007;-70
2024/04/23 03:50:27;;;;;;;20.10;12.35;;;;;;;0.29;100.00;101810.78;5404969;26;20043;-70
2024/04/23 03:52:53;;;;;;;22.00;12.48;;;;;;;0.27;100.00;101818.50;5441531;26;19998;-71
2024/04/23 03:55:19;;;;;;;22.65;13.30;;;;;;;0.25;100.00;101820.28;5429253;26;20434;-71
2024/04/23 03:57:45;;;;;;;21.70;12.10;;;;;;;0.22;100.00;101819.59;5438222;26;20042;-71
2024/04/23 04:00:11;;;;;;;22.98;12.88;;;;;;;0.19;100.00;101821.38;5438663;26;20007;-71
2024/04/23 04:08:14;;;;;;;23.65;12.98;;;;;;;0.08;100.00;101818.44;5380883;26;20002;-71
2024/04/23 04:10:40;;;;;;;23.08;12.90;;;;;;;0.06;100.00;101815.13;5403160;26;20007;-70
2024/04/23 04:13:06;;;;;;;24.17;11.82;;;;;;;0.03;100.00;101814.41;5434769;26;20003;-71
2024/04/23 04:15:32;;;;;;;23.52;12.70;;;;;;;0.02;100.00;101816.16;5432703;26;20007;-70
2024/04/23 04:17:58;;;;;;;21.52;12.30;;;;;;;-0.02;100.00;101817.13;5441403;26;20014;-71
2024/04/23 04:20:24;;;;;;;21.33;12.80;;;;;;;-0.05;100.00;101814.72;5436354;26;20093;-70
2024/04/23 04:22:50;;;;;;;24.73;13.57;;;;;;;-0.10;100.00;101808.97;5437949;26;19999;-71
2024/04/23 04:25:16;;;;;;;21.00;12.52;;;;;;;-0.11;100.00;101808.16;5408977;26;20010;-71
2024/04/23 04:27:42;;;;;;;26.92;13.80;;;;;;;-0.10;100.00;101807.25;5407487;26;20329;-71
2024/04/23 04:30:09;;;;;;;26.13;13.32;;;;;;;-0.10;100.00;101808.97;5408643;26;20013;-70
2024/04/23 04:32:35;;;;;;;27.02;13.13;;;;;;;-0.11;100.00;101813.25;5402577;26;20089;-69
2024/04/23 04:35:01;;;;;;;22.88;13.50;;;;;;;-0.13;100.00;101809.09;5437024;26;20457;-70
2024/04/23 04:37:35;;;;;;;24.30;13.52;;;;;;;-0.16;100.00;101811.78;5438795;26;20019;-70
2024/04/23 04:40:01;;;;;;;23.15;13.27;;;;;;;-0.18;100.00;101819.50;5434375;26;20007;-70
2024/04/23 04:42:27;;;;;;;23.05;13.85;;;;;;;-0.20;100.00;101818.72;5411304;26;20007;-71
2024/04/23 04:44:53;;;;;;;23.35;13.88;;;;;;;-0.19;100.00;101820.38;5411371;26;20034;-70
2024/04/23 04:47:19;;;;;;;28.02;14.25;;;;;;;-0.21;100.00;101827.25;5436741;26;20007;-71
2024/04/23 04:49:45;;;;;;;24.38;13.73;;;;;;;-0.18;100.00;101826.31;5402293;26;20033;-70
2024/04/23 04:52:11;;;;;;;24.17;13.75;;;;;;;-0.17;100.00;101828.81;5436214;26;20761;-71
2024/04/23 04:54:37;;;;;;;28.83;16.60;;;;;;;-0.16;100.00;101829.63;5432668;26;20007;-70
2024/04/23 04:57:04;;;;;;;36.40;21.23;;;;;;;-0.16;100.00;101820.25;5411269;26;20013;-70
2024/04/23 04:59:31;;;;;;;32.25;17.48;;;;;;;-0.16;100.00;101822.00;5436754;26;20014;-70
2024/04/23 05:01:56;;;;;;;29.80;15.70;;;;;;;-0.14;100.00;101827.84;5431978;26;20018;-71
2024/04/23 05:04:22;;;;;;;28.25;15.25;;;;;;;-0.13;100.00;101825.25;5405644;26;20026;-71
2024/04/23 05:06:48;;;;;;;28.25;15.00;;;;;;;-0.11;100.00;101828.56;5401081;26;20015;-70
2024/04/23 05:09:14;;;;;;;28.80;15.30;;;;;;;-0.08;100.00;101830.97;5437381;26;20603;-70
2024/04/23 05:11:42;;;;;;;26.58;14.50;;;;;;;-0.07;100.00;101835.19;5408330;26;20010;-71
2024/04/23 05:14:08;;;;;;;28.85;15.32;;;;;;;-0.07;100.00;101836.91;5441406;26;20423;-70
2024/04/23 05:16:35;;;;;;;29.88;15.70;;;;;;;-0.03;100.00;101835.91;5431288;26;20025;-71
2024/04/23 05:19:01;;;;;;;27.25;14.68;;;;;;;-0.02;100.00;101838.41;5405504;26;20007;-70
2024/04/23 05:21:28;;;;;;;29.60;15.77;;;;;;;0.02;100.00;101836.56;5406405;26;20068;-71
2024/04/23 05:23:54;;;;;;;27.27;15.55;;;;;;;0.08;100.00;101838.03;5440360;26;20083;-70
2024/04/23 05:26:20;;;;;;;29.55;16.58;;;;;;;0.16;100.00;101838.53;5405651;26;20028;-71
2024/04/23 05:28:46;;;;;;;31.83;17.17;;;;;;;0.26;100.00;101841.53;5405135;26;20029;-70
2024/04/23 05:33:57;;;;;;;30.13;17.33;;;;;;;0.43;100.00;101843.38;5441534;26;20010;-70
2024/04/23 05:36:25;;;;;;;29.10;16.70;;;;;;;0.49;100.00;101843.09;5407960;26;20010;-71
2024/04/23 05:38:51;;;;;;;30.88;17.48;;;;;;;0.62;100.00;101845.97;5403289;26;20015;-70
2024/04/23 05:41:17;;;;;;;34.67;18.88;;;;;;;0.75;100.00;101841.97;5428599;26;20021;-71
2024/04/23 05:43:43;;;;;;;35.88;18.20;;;;;;;0.87;100.00;101840.63;5440520;26;20100;-71
2024/04/23 05:46:09;;;;;;;33.13;18.20;;;;;;;1.05;100.00;101851.75;5406293;26;20414;-71
2024/04/23 05:49:12;;;;;;;30.35;17.17;;;;;;;1.13;100.00;101842.84;5429490;26;20046;-70
2024/04/23 05:52:35;;;;;;;31.15;17.30;;;;;;;1.30;100.00;101842.09;5436425;26;20079;-71
2024/04/23 05:55:33;;;;;;;38.25;16.83;;;;;;;1.61;100.00;101844.94;5431087;26;20018;-71
2024/04/23 05:57:59;;;;;;;29.42;18.50;;;;;;;1.92;100.00;101834.91;5438010;26;20080;-71
2024/04/23 06:00:25;;;;;;;34.40;19.05;;;;;;;2.27;100.00;101840.00;5407019;26;21136;-71
2024/04/23 06:02:52;;;;;;;33.28;17.98;;;;;;;2.71;100.00;101839.50;5436675;26;20007;-71
2024/04/23 06:05:18;;;;;;;28.75;17.05;;;;;;;3.06;100.00;101843.66;5427999;26;20007;-71
2024/04/23 06:07:44;;;;;;;27.58;15.77;;;;;;;3.35;100.00;101833.56;5439508;26;20042;-71
2024/04/23 06:10:10;;;;;;;26.98;15.85;;;;;;;3.62;100.00;101834.63;5411461;26;20079;-71
2024/04/23 06:12:36;;;;;;;28.70;14.88;;;;;;;3.85;100.00;101829.94;5439202;26;20007;-71
2024/04/23 06:15:02;;;;;;;28.40;15.50;;;;;;;4.04;100.00;101833.09;5403708;26;20017;-71
2024/04/23 06:17:34;;;;;;;23.52;13.75;;;;;;;4.02;98.29;101829.78;5406121;26;20007;-71
2024/04/23 06:20:00;;;;;;;38.10;17.08;;;;;;;4.05;97.50;101829.63;5401296;26;20010;-70
2024/04/23 06:22:31;;;;;;;27.98;14.18;;;;;;;3.88;97.29;101832.31;5403080;26;20027;-71
2024/04/23 06:24:57;;;;;;;25.70;13.93;;;;;;;3.59;97.48;101831.41;5438164;26;20038;-71
2024/04/23 06:27:25;;;;;;;23.52;14.02;;;;;;;3.31;99.65;101832.91;5431416;26;20042;-71
2024/04/23 06:29:51;;;;;;;24.95;15.05;;;;;;;3.21;100.00;101831.75;5406800;26;20441;-71
2024/04/23 06:32:18;;;;;;;28.80;15.07;;;;;;;3.04;100.00;101830.09;5429273;26;20014;-71
2024/04/23 06:34:45;;;;;;;27.73;15.57;;;;;;;2.96;100.00;101834.78;5438145;26;20083;-71
2024/04/23 06:37:11;;;;;;;32.15;16.40;;;;;;;2.94;100.00;101834.91;5433724;26;20356;-71
2024/04/23 06:39:38;;;;;;;25.30;14.95;;;;;;;2.90;100.00;101834.22;5433615;26;20392;-71
2024/04/23 06:42:04;;;;;;;25.27;14.63;;;;;;;2.87;100.00;101834.38;5405624;26;20003;-74
2024/04/23 06:44:30;;;;;;;28.80;14.68;;;;;;;2.93;100.00;101828.91;5406029;26;20018;-70
2024/04/23 06:46:57;;;;;;;38.55;18.77;;;;;;;3.05;100.00;101826.63;5436993;26;20025;-71
2024/04/23 06:49:24;;;;;;;29.27;16.25;;;;;;;3.15;100.00;101832.91;5435220;26;20345;-72
2024/04/23 06:51:50;;;;;;;27.50;14.23;;;;;;;3.31;100.00;101840.59;5436701;26;20350;-71
2024/04/23 06:54:16;;;;;;;23.60;14.45;;;;;;;3.55;100.00;101832.47;5403938;26;20007;-71
2024/04/23 06:56:42;;;;;;;24.58;13.80;;;;;;;3.73;100.00;101830.63;5407715;26;20018;-72
2024/04/23 06:59:09;;;;;;;23.17;13.05;;;;;;;3.95;97.70;101828.47;5439186;26;20084;-70
2024/04/23 07:01:35;;;;;;;22.02;13.07;;;;;;;4.32;96.32;101828.13;5443720;26;20039;-71
2024/04/23 07:04:01;;;;;;;19.70;11.98;;;;;;;4.91;94.80;101820.28;5406322;26;20015;-71
2024/04/23 07:06:27;;;;;;;19.70;12.57;;;;;;;5.68;90.14;101820.63;5412148;26;20014;-71
2024/04/23 07:08:53;;;;;;;22.75;11.52;;;;;;;6.68;84.93;101819.16;5406769;26;20018;-71
2024/04/23 07:11:20;;;;;;;20.17;11.48;;;;;;;7.54;77.24;101813.09;5435853;26;20015;-72
2024/04/23 07:13:46;;;;;;;21.08;11.35;;;;;;;8.20;71.37;101810.78;5411245;26;20410;-71
2024/04/23 07:16:13;;;;;;;24.83;10.55;;;;;;;8.95;69.06;101815.38;5406956;26;20010;-72
2024/04/23 07:18:39;;;;;;;20.35;10.27;;;;;;;9.40;65.78;101811.84;5441086;26;20091;-71
2024/04/23 07:21:05;;;;;;;18.80;9.85;;;;;;;10.00;61.85;101804.38;5439984;26;20477;-71
2024/04/23 07:23:31;;;;;;;16.73;9.68;;;;;;;10.25;61.30;101800.53;5439404;26;20023;-71
2024/04/23 07:25:57;;;;;;;17.05;10.73;;;;;;;10.52;59.38;101801.75;5436158;26;22341;-71
2024/04/23 07:28:23;;;;;;;18.85;7.88;;;;;;;10.68;54.76;101799.50;5438503;26;20091;-72
2024/04/23 07:30:50;;;;;;;13.00;7.40;;;;;;;10.82;52.57;101793.13;5440743;26;20126;-71
2024/04/23 07:33:16;;;;;;;11.95;6.95;;;;;;;11.10;52.04;101799.31;5446586;26;20078;-71
2024/04/23 07:35:43;;;;;;;12.30;7.10;;;;;;;11.41;51.00;101799.16;5438865;26;20405;-72
2024/04/23 07:38:10;;;;;;;11.82;6.00;;;;;;;11.33;51.04;101788.66;5449823;26;20083;-72
2024/04/23 07:40:36;;;;;;;10.70;6.72;;;;;;;10.96;51.00;101791.91;5412243;26;20356;-72
2024/04/23 07:43:03;;;;;;;10.23;6.38;;;;;;;11.00;49.70;101789.84;5439353;26;20031;-72
2024/04/23 07:45:29;;;;;;;10.85;6.43;;;;;;;10.95;50.00;101790.28;5443664;26;19999;-72
2024/04/23 07:47:55;;;;;;;8.30;5.20;;;;;;;11.12;49.83;101782.78;5447709;26;20003;-72
2024/04/23 07:50:21;;;;;;;10.60;6.15;;;;;;;11.34;49.72;101784.28;5443504;26;20071;-72
2024/04/23 07:52:47;;;;;;;9.98;6.38;;;;;;;11.97;50.30;101787.25;5411913;26;20007;-72
2024/04/23 07:55:13;;;;;;;8.00;5.10;;;;;;;11.56;45.84;101790.97;5406435;26;20002;-74
2024/04/23 07:57:44;;;;;;;10.43;5.93;;;;;;;12.21;46.83;101788.53;5443278;26;20016;-72
2024/04/23 08:00:11;;;;;;;7.97;5.95;;;;;;;12.59;47.63;101794.53;5433337;26;20369;-73
2024/04/23 08:02:38;;;;;;;13.00;5.50;;;;;;;12.72;47.13;101778.59;5413957;26;19999;-72
2024/04/23 08:05:06;;;;;;;14.82;5.38;;;;;;;12.27;46.90;101777.56;5445282;26;20019;-72
2024/04/23 08:07:32;;;;;;;10.85;6.03;;;;;;;12.55;45.74;101780.19;5405663;26;20017;-72
2024/04/23 08:10:01;;;;;;;8.13;4.53;;;;;;;12.76;44.23;101774.72;5399370;26;20003;-72
2024/04/23 08:12:27;;;;;;;9.05;4.22;;;;;;;12.76;42.52;101774.72;5406588;26;20018;-72
2024/04/23 08:14:53;;;;;;;9.75;4.93;;;;;;;12.92;44.67;101784.47;5410516;26;20003;-73
2024/04/23 08:17:22;;;;;;;7.70;4.65;;;;;;;13.28;43.08;101787.06;5407941;26;20017;-71
2024/04/23 08:19:49;;;;;;;9.00;5.10;;;;;;;13.17;43.17;101786.34;5434296;26;20075;-72
2024/04/23 08:22:15;;;;;;;8.23;4.97;;;;;;;13.52;41.43;101778.69;5409445;26;20010;-72
2024/04/23 08:24:41;;;;;;;9.95;4.70;;;;;;;13.87;41.36;101775.19;5404224;26;20007;-72
2024/04/23 08:27:07;;;;;;;10.32;3.70;;;;;;;13.78;39.88;101778.69;5434518;26;20714;-72
2024/04/23 08:29:33;;;;;;;8.52;4.38;;;;;;;14.16;39.19;101764.41;5436519;26;20022;-72
2024/04/23 08:31:59;;;;;;;6.43;4.35;;;;;;;14.14;38.20;101758.53;5438459;26;20046;-72
2024/04/23 08:34:25;;;;;;;12.40;4.15;;;;;;;14.07;39.58;101756.69;5405429;26;20002;-72
2024/04/23 08:36:51;;;;;;;7.78;3.22;;;;;;;14.52;38.90;101756.41;5399789;26;20047;-73
2024/04/23 08:39:17;;;;;;;5.10;3.60;;;;;;;14.10;38.18;101754.59;5397003;26;20010;-72
2024/04/23 08:41:47;;;;;;;7.50;3.33;;;;;;;14.62;37.90;101748.47;5412824;26;20007;-72
2024/04/23 08:44:13;;;;;;;6.30;3.40;;;;;;;14.75;37.60;101755.84;5440492;26;20019;-73
2024/04/23 08:46:40;;;;;;;5.18;3.15;;;;;;;14.76;36.39;101752.25;5408654;26;20011;-72
2024/04/23 08:49:08;;;;;;;7.00;3.00;;;;;;;14.33;36.08;101751.44;5403769;26;20017;-72
2024/04/23 08:51:34;;;;;;;5.25;2.90;;;;;;;14.34;38.91;101747.88;5434722;26;20021;-73
2024/04/23 08:54:01;;;;;;;5.82;2.78;;;;;;;14.49;35.83;101740.25;5433903;26;20018;-73
2024/04/23 08:56:30;;;;;;;5.38;2.90;;;;;;;13.98;36.48;101743.63;5408971;26;20021;-72
2024/04/23 08:58:56;;;;;;;4.95;3.20;;;;;;;14.18;36.99;101740.78;5433185;26;20038;-72
2024/04/23 09:01:31;;;;;;;7.45;2.13;;;;;;;14.54;36.72;101733.56;5425610;26;20019;-73
2024/04/23 09:03:58;;;;;;;5.38;2.53;;;;;;;14.44;34.89;101732.88;5435469;26;20007;-73
2024/04/23 09:06:25;;;;;;;3.90;2.42;;;;;;;14.33;34.61;101733.16;5441136;26;20021;-73
2024/04/23 09:08:53;;;;;;;7.38;2.88;;;;;;;14.63;34.72;101737.03;5430298;26;20010;-71
2024/04/23 09:11:19;;;;;;;3.15;2.50;;;;;;;14.82;35.46;101735.91;5428975;26;20088;-71
2024/04/23 09:13:45;;;;;;;7.70;4.38;;;;;;;14.83;36.38;101734.16;5409571;26;20013;-71
2024/04/23 09:16:11;;;;;;;5.07;3.05;;;;;;;14.90;34.74;101730.72;5436199;26;20004;-72
2024/04/23 09:18:37;;;;;;;4.85;2.42;;;;;;;14.84;35.75;101727.94;5438028;26;20087;-71
2024/04/23 09:21:03;;;;;;;4.70;2.33;;;;;;;15.19;36.39;101722.41;5436081;26;20015;-71
2024/04/23 09:23:33;;;;;;;7.65;5.50;;;;;;;15.31;37.31;101720.28;5410123;26;20076;-71
2024/04/23 09:26:01;;;;;;;6.72;3.42;;;;;;;15.18;36.42;101717.34;5407101;26;20470;-71
2024/04/23 09:28:32;;;;;;;2.95;2.40;;;;;;;15.31;34.74;101706.38;5395282;26;20006;-71
2024/04/23 09:30:58;;;;;;;3.95;1.85;;;;;;;14.90;34.13;101709.00;5402040;26;20092;-72
2024/04/23 09:33:26;;;;;;;4.63;2.63;;;;;;;15.01;34.25;101708.69;5399037;26;20007;-71
2024/04/23 09:36:13;;;;;;;5.30;2.65;;;;;;;15.14;35.22;101708.19;5433016;26;20008;-71
2024/04/23 09:38:40;;;;;;;6.63;2.67;;;;;;;15.34;34.31;101706.88;5406259;26;20057;-72
2024/04/23 09:41:08;;;;;;;5.32;2.55;;;;;;;15.19;33.51;101703.31;5408369;26;20007;-72
2024/04/23 09:43:34;;;;;;;6.53;3.30;;;;;;;15.25;34.92;101700.03;5402916;26;21126;-72
2024/04/23 09:46:02;;;;;;;5.47;2.75;;;;;;;14.35;35.58;101700.75;5433665;26;20015;-72
2024/04/23 09:48:39;;;;;;;5.25;2.42;;;;;;;13.89;33.88;101699.44;5408860;26;20006;-72
2024/04/23 09:51:06;;;;;;;6.03;2.45;;;;;;;13.90;34.59;101693.22;5405159;26;20051;-71
2024/04/23 09:53:37;;;;;;;2.80;1.80;;;;;;;12.57;33.63;101700.22;5407612;26;20412;-72
2024/04/23 09:56:04;;;;;;;4.20;2.38;;;;;;;11.99;35.26;101696.13;5435725;26;20526;-71
2024/04/23 09:58:34;;;;;;;5.72;2.90;;;;;;;11.73;38.76;101696.72;5442161;26;20365;-73
2024/04/23 10:01:01;;;;;;;3.78;2.60;;;;;;;11.56;37.95;101687.06;5429131;26;20046;-71
2024/04/23 10:03:29;;;;;;;4.93;2.85;;;;;;;11.75;38.29;101687.00;5399602;26;20469;-72
2024/04/23 10:06:03;;;;;;;6.10;3.03;;;;;;;12.62;36.54;101677.97;5397376;26;20055;-72
2024/04/23 10:08:41;;;;;;;4.20;2.80;;;;;;;13.11;36.33;101679.34;5439856;26;20007;-71
2024/04/23 10:11:10;;;;;;;4.57;2.53;;;;;;;13.73;35.88;101677.53;5425072;26;20044;-71
2024/04/23 10:13:41;;;;;;;3.15;2.47;;;;;;;13.95;34.03;101664.91;5429390;26;20010;-71
2024/04/23 10:16:24;;;;;;;4.22;2.42;;;;;;;14.09;34.05;101660.88;5432157;26;20011;-72
2024/04/23 10:18:59;;;;;;;5.07;2.55;;;;;;;14.53;36.31;101655.44;5438290;26;20468;-71
2024/04/23 10:21:29;;;;;;;5.00;2.45;;;;;;;14.33;34.19;101653.09;5400746;26;20424;-72
2024/04/23 10:24:07;;;;;;;5.18;3.35;;;;;;;14.45;34.22;101648.41;5439899;26;20015;-72
2024/04/23 10:26:37;;;;;;;7.10;3.47;;;;;;;14.38;34.46;101648.22;5400406;26;20031;-72
2024/04/23 10:29:04;;;;;;;6.00;2.70;;;;;;;14.01;35.41;101649.47;5409239;26;20003;-71
2024/04/23 10:31:31;;;;;;;3.83;2.33;;;;;;;13.39;33.45;101641.84;5438337;26;20461;-71
2024/04/23 10:33:58;;;;;;;4.03;2.58;;;;;;;12.91;36.23;101637.88;5386104;26;20373;-71
2024/04/23 10:36:26;;;;;;;7.78;4.03;;;;;;;12.46;37.79;101647.41;5436618;26;20449;-71
2024/04/23 10:38:55;;;;;;;4.53;3.15;;;;;;;11.98;37.97;101645.09;5439419;26;20019;-71
2024/04/23 10:41:24;;;;;;;6.30;3.33;;;;;;;11.87;38.11;101640.91;5407798;26;20116;-71
2024/04/23 10:43:52;;;;;;;6.10;3.40;;;;;;;11.64;37.91;101649.06;5414461;26;20493;-71
2024/04/23 10:46:18;;;;;;;7.00;2.90;;;;;;;11.69;39.97;101654.63;5443568;26;20356;-71
2024/04/23 10:48:44;;;;;;;7.07;3.47;;;;;;;11.82;39.43;101645.69;5440345;26;20524;-71
2024/04/23 10:51:10;;;;;;;9.55;3.50;;;;;;;11.75;36.85;101640.25;5444360;26;20007;-71
2024/04/23 10:53:38;;;;;;;4.68;3.35;;;;;;;11.73;38.03;101643.94;5449262;26;20427;-72
2024/04/23 10:56:05;;;;;;;4.88;3.63;;;;;;;12.02;38.30;101636.06;5412945;26;20066;-72
2024/04/23 10:58:37;;;;;;;5.88;2.80;;;;;;;11.93;38.80;101631.72;5439729;26;20752;-71
2024/04/23 11:01:04;;;;;;;6.45;3.30;;;;;;;12.05;38.61;101635.75;5439770;26;20039;-72
2024/04/23 11:03:31;;;;;;;4.80;2.92;;;;;;;12.51;36.90;101626.16;5440585;26;20015;-71
2024/04/23 11:05:57;;;;;;;6.93;2.85;;;;;;;12.93;35.56;101616.91;5411575;26;20007;-71
2024/04/23 11:08:27;;;;;;;6.45;4.32;;;;;;;13.07;34.68;101607.72;5446403;26;20080;-71
2024/04/23 11:11:08;;;;;;;6.25;3.47;;;;;;;13.23;36.07;101605.25;5439958;26;20014;-71
2024/04/23 11:13:41;;;;;;;6.00;2.88;;;;;;;13.15;36.48;101597.38;5407080;26;20494;-71
2024/04/23 11:16:18;;;;;;;8.55;3.55;;;;;;;13.22;37.80;101598.38;5441500;26;20591;-71
2024/04/23 11:18:46;;;;;;;5.78;3.50;;;;;;;13.49;37.89;101597.44;5440331;26;20007;-71
2024/04/23 11:21:25;;;;;;;5.63;3.17;;;;;;;13.61;38.58;101590.16;5410045;26;20053;-72
2024/04/23 11:23:51;;;;;;;5.72;3.38;;;;;;;13.77;37.13;101594.63;5437198;26;20441;-71